Airfield :







YOU CAN JOIN US ON...

 
LOGIN :

Register | Disclaimer

   EN    FR    IT 

 









Legend :    VFR   Marginal VFR   IFR   Intensive IFR   Very Intensive IFR
Visi :
Ceiling :
>= 8 km
>= 3000ft
5 to 8 km
1000 to 3000 ft
1500m to 5 km
500 to 1000 ft
800 to 1500m
200 to 500 ft
< 800m
< 200 ft
Symbols :   Thunderstorms  Fog  Heavy snow  Heavy precipitations  Wind > 20 kt






- Airport Elevation : 241 ft
- IATA code : CEF


KCEF - Westover ARB/Metropolitan

CURRENT METAR :
  • 170356Z 03007KT 10SM CLR M06/M18 A3048 RMK AO2A SLP331 T10581176

EXPIRED METARs :
  • 170256Z 02005KT 10SM CLR M05/M17 A3051 RMK AO2A SLP341 T10501175 52010
  • 170156Z 03006KT 10SM CLR M05/M17 A3050 RMK AO2A SLP338 T10491168

TAF TAF KCEF
Valid from the 17 at 03:00 until the 18 at 09:00 UTC


170300Z 1703/1809 VRB06KT 9999 SKC QNH3045INS
BECMG 1713/1714 03010G15KT 9999 SCT026 BKN200 510303 QNH3021INS
BECMG 1723/1724 03010G15KT 9999 BKN017 OVC050 540173 QNH2994INS TX04/1719Z TNM12/1710Z LAST NO AMDS AFT 1704 NEXT 1711



MET'MAP, your aeronautical weather chart ! - Copyright ORBIFLY December 2007 - Disclaimer

ORBIFLY MET'MAP TEAM :

Programming & Development : Alexandra Zaïnal
Concept & Development : Baudouin d'Aumeries
Co-Development & Prog : Marc-Olivier Méhu
Technical & hardware support : Manuel Goepfert

Contact : metmap@orbifly.com




SOURCES & CREDITS :

   NOAA